Time;durP1;ratioP1;P1;durP2;ratioP2;P2;SDS_P1;SDS_P2;PMS_P1;PMS_P2;Temp;Humidity;BMP_temperature;BMP_pressure;BME280_temperature;BME280_humidity;BME280_pressure;Samples;Min_cycle;Max_cycle;Signal;HPM_P1;HPM_P2
2022/02/05 00:03:27;;;;;;;41.60;22.52;;;154.30;1689.60;;;;;;5114170;28;20070;-61
2022/02/05 00:06:04;;;;;;;59.85;22.30;;;154.40;1689.60;;;;;;5114148;28;20122;-62
2022/02/05 00:12:00;;;;;;;54.60;25.48;;;179.20;1689.60;;;;;;5114123;28;20030;-61
2022/02/05 00:14:57;;;;;;;53.47;26.42;;;154.50;1664.00;;;;;;5113571;28;20067;-63
2022/02/05 00:41:48;;;;;;;41.60;23.65;;;154.20;1664.00;;;;;;5098235;28;20032;-59
2022/02/05 00:44:17;;;;;;;37.17;21.48;;;154.30;1664.00;;;;;;5092516;28;20104;-59
2022/02/05 00:46:49;;;;;;;42.70;24.08;;;154.30;1664.00;;;;;;5101100;28;20027;-59
2022/02/05 00:49:16;;;;;;;47.00;24.92;;;154.30;1664.00;;;;;;5100760;28;20424;-59
2022/02/05 00:51:51;;;;;;;55.70;28.90;;;154.30;1664.00;;;;;;5092537;28;20032;-60
2022/02/05 00:54:20;;;;;;;55.35;30.50;;;154.20;1664.00;;;;;;5096998;28;20035;-60
2022/02/05 00:56:56;;;;;;;58.90;33.92;;;154.30;1664.00;;;;;;5103414;28;20031;-59
2022/02/05 00:59:23;;;;;;;67.35;38.03;;;154.20;1664.00;;;;;;5094583;28;20481;-59
2022/02/05 01:01:50;;;;;;;63.67;37.67;;;154.20;1664.00;;;;;;5092994;28;20039;-59
2022/02/05 01:04:16;;;;;;;79.25;43.95;;;154.20;1664.00;;;;;;5100839;28;20027;-59
2022/02/05 01:06:42;;;;;;;87.57;46.28;;;154.10;1664.00;;;;;;5097218;28;20081;-60
2022/02/05 01:09:25;;;;;;;95.55;52.17;;;154.10;1664.00;;;;;;5091786;28;20028;-59
2022/02/05 01:11:56;;;;;;;98.88;52.08;;;154.10;1664.00;;;;;;5092254;28;20192;-59
2022/02/05 01:14:30;;;;;;;99.20;53.05;;;154.00;1689.60;;;;;;5090033;28;20043;-59
2022/02/05 01:17:07;;;;;;;108.03;55.40;;;154.00;1689.60;;;;;;5096369;28;20062;-60
2022/02/05 01:22:21;;;;;;;109.63;58.85;;;154.00;1715.20;;;;;;5099745;28;20516;-59
2022/02/05 01:24:50;;;;;;;112.25;58.92;;;153.90;1715.20;;;;;;5098435;28;20543;-58
2022/02/05 01:30:49;;;;;;;112.28;56.78;;;154.00;1715.20;;;;;;5010694;28;20073;-59
2022/02/05 01:57:58;;;;;;;68.78;36.75;;;154.30;1766.40;;;;;;5011872;28;19912;-57
2022/02/05 02:11:50;;;;;;;56.17;29.52;;;154.20;1740.80;;;;;;5074822;28;20520;-57
2022/02/05 02:14:39;;;;;;;53.53;31.73;;;154.30;1715.20;;;;;;5076720;28;20403;-57
2022/02/05 02:30:40;;;;;;;60.20;31.67;;;153.80;1740.80;;;;;;5076367;28;20107;-56
2022/02/05 02:33:21;;;;;;;61.95;33.33;;;153.90;1740.80;;;;;;5076172;28;20044;-56
2022/02/05 02:35:53;;;;;;;67.53;34.08;;;154.00;1715.20;;;;;;5076251;28;20442;-57
2022/02/05 02:38:33;;;;;;;66.57;34.55;;;154.00;1740.80;;;;;;5076247;28;20052;-57
2022/02/05 02:41:12;;;;;;;64.47;34.88;;;154.00;1715.20;;;;;;5076715;28;20522;-57
2022/02/05 02:43:44;;;;;;;83.82;39.38;;;153.90;1740.80;;;;;;5076227;28;20037;-56
2022/02/05 02:46:13;;;;;;;88.07;41.28;;;153.90;1766.40;;;;;;5076112;28;20020;-57
2022/02/05 02:48:47;;;;;;;80.00;38.17;;;153.90;1766.40;;;;;;5076151;28;20052;-57
2022/02/05 02:57:30;;;;;;;91.78;46.22;;;154.00;1766.40;;;;;;5075760;28;20561;-56
2022/02/05 02:59:58;;;;;;;104.93;50.37;;;154.00;1740.80;;;;;;5072674;28;20044;-56
2022/02/05 03:02:29;;;;;;;106.32;50.95;;;153.90;1766.40;;;;;;5075541;28;20068;-57
2022/02/05 03:04:58;;;;;;;91.97;47.47;;;153.90;1740.80;;;;;;5075521;28;20040;-56
2022/02/05 03:07:30;;;;;;;91.45;45.53;;;153.90;1766.40;;;;;;5075619;28;20020;-56
2022/02/05 03:10:03;;;;;;;71.60;39.75;;;154.00;1766.40;;;;;;5075491;28;20047;-57
2022/02/05 03:12:35;;;;;;;69.60;35.85;;;153.90;1766.40;;;;;;5075369;28;20035;-56
2022/02/05 03:15:04;;;;;;;52.22;30.83;;;154.00;1766.40;;;;;;5075430;28;20099;-56
2022/02/05 03:17:40;;;;;;;53.35;30.30;;;154.00;1766.40;;;;;;5075294;28;20467;-56
2022/02/05 03:20:08;;;;;;;56.80;29.88;;;153.90;1792.00;;;;;;5075387;28;20078;-56
2022/02/05 03:22:40;;;;;;;53.80;30.13;;;154.00;1766.40;;;;;;5075066;28;20123;-57
2022/02/05 03:25:11;;;;;;;50.95;29.10;;;154.00;1766.40;;;;;;5075162;28;20455;-56
2022/02/05 03:27:43;;;;;;;50.80;28.83;;;154.00;1766.40;;;;;;5074997;28;20390;-56
2022/02/05 03:30:15;;;;;;;57.08;30.58;;;154.00;1766.40;;;;;;5075123;28;20024;-56
2022/02/05 03:32:46;;;;;;;55.80;29.30;;;154.10;1766.40;;;;;;5074793;28;20041;-56
2022/02/05 03:35:18;;;;;;;50.72;30.70;;;154.10;1740.80;;;;;;5075007;28;20031;-57
2022/02/05 03:37:52;;;;;;;56.33;30.92;;;154.00;1792.00;;;;;;5075055;28;20071;-56
2022/02/05 03:40:24;;;;;;;52.08;30.58;;;154.00;1792.00;;;;;;5074904;28;20032;-56
2022/02/05 03:42:53;;;;;;;57.28;32.05;;;153.90;1792.00;;;;;;5074941;28;20040;-56
2022/02/05 03:45:24;;;;;;;54.88;32.55;;;154.00;1792.00;;;;;;5075097;28;20036;-57
2022/02/05 03:47:56;;;;;;;58.25;32.08;;;153.90;1766.40;;;;;;5074898;28;20090;-58
2022/02/05 03:50:28;;;;;;;51.92;30.27;;;153.90;1792.00;;;;;;5074914;28;20020;-57
2022/02/05 03:52:56;;;;;;;49.65;28.20;;;154.00;1766.40;;;;;;5074715;28;20028;-56
2022/02/05 03:55:28;;;;;;;51.60;28.40;;;154.10;1792.00;;;;;;5074570;28;20489;-57
2022/02/05 03:57:58;;;;;;;48.40;28.45;;;154.10;1792.00;;;;;;5074448;28;20039;-57
2022/02/05 04:00:30;;;;;;;49.17;29.67;;;154.10;1792.00;;;;;;5074707;28;20379;-57
2022/02/05 04:03:00;;;;;;;53.35;28.77;;;154.20;1792.00;;;;;;5074447;28;20033;-56
2022/02/05 04:05:30;;;;;;;66.25;31.20;;;154.20;1792.00;;;;;;5074529;28;20024;-56
2022/02/05 04:08:04;;;;;;;59.47;30.88;;;154.20;1817.60;;;;;;5074448;28;20032;-57
2022/02/05 04:10:45;;;;;;;56.78;30.60;;;154.20;1792.00;;;;;;5074590;28;20458;-56
2022/02/05 04:16:21;;;;;;;49.03;26.80;;;154.10;1843.20;;;;;;5074758;28;20366;-58
2022/02/05 04:18:57;;;;;;;54.15;26.90;;;154.20;1843.20;;;;;;5074132;28;20063;-57
2022/02/05 04:21:31;;;;;;;47.88;28.60;;;154.20;1843.20;;;;;;5074091;28;20431;-56
2022/02/05 04:24:03;;;;;;;49.28;27.27;;;154.30;1817.60;;;;;;5074172;28;20176;-57
2022/02/05 04:26:35;;;;;;;48.63;30.42;;;154.20;1868.80;;;;;;5073981;28;20025;-57
2022/02/05 04:29:09;;;;;;;45.88;26.80;;;154.30;1843.20;;;;;;5074094;28;20021;-57
2022/02/05 04:31:39;;;;;;;46.00;26.75;;;154.20;1868.80;;;;;;5074153;28;20051;-57
2022/02/05 04:34:11;;;;;;;47.10;26.08;;;154.30;1843.20;;;;;;5073592;28;20028;-56
2022/02/05 04:36:43;;;;;;;47.40;27.55;;;154.10;1843.20;;;;;;5073851;28;20393;-56
2022/02/05 04:39:17;;;;;;;46.55;26.55;;;154.10;1868.80;;;;;;5073800;28;20107;-56
2022/02/05 04:41:53;;;;;;;51.03;28.13;;;154.20;1843.20;;;;;;5073950;28;20367;-56
2022/02/05 04:50:36;;;;;;;45.92;28.52;;;154.10;1868.80;;;;;;5073913;28;20046;-56
2022/02/05 05:04:34;;;;;;;38.40;24.50;;;154.10;1868.80;;;;;;4992315;28;20100;-57
2022/02/05 05:21:01;;;;;;;41.40;24.77;;;153.90;1894.40;;;;;;4992482;28;20404;-56
2022/02/05 05:23:32;;;;;;;58.78;27.35;;;153.90;1843.20;;;;;;4992044;28;20041;-57
2022/02/05 05:26:03;;;;;;;54.95;26.55;;;153.90;1894.40;;;;;;4992215;28;20504;-56
2022/02/05 05:28:34;;;;;;;58.05;29.10;;;154.00;1868.80;;;;;;4992013;28;20034;-57
2022/02/05 05:31:05;;;;;;;58.15;31.95;;;154.00;1971.20;;;;;;4991920;28;20031;-56
2022/02/05 05:33:36;;;;;;;66.95;38.20;;;154.10;1920.00;;;;;;4992055;28;20106;-56
2022/02/05 05:36:08;;;;;;;67.35;34.63;;;154.00;1868.80;;;;;;4992075;28;20118;-57
2022/02/05 05:38:39;;;;;;;58.25;35.67;;;154.00;1868.80;;;;;;5046709;28;20074;-56
2022/02/05 05:41:12;;;;;;;63.05;35.65;;;154.00;1817.60;;;;;;5073332;28;20095;-56
2022/02/05 05:51:40;;;;;;;86.03;52.95;;;153.90;1868.80;;;;;;5076941;28;20021;-57
2022/02/05 05:54:11;;;;;;;87.70;55.58;;;153.80;1868.80;;;;;;5076991;28;20032;-56
2022/02/05 05:56:46;;;;;;;81.07;49.97;;;153.70;1894.40;;;;;;5077022;28;20036;-57
2022/02/05 05:59:17;;;;;;;83.07;50.10;;;153.80;1868.80;;;;;;5076725;28;20103;-56
2022/02/05 06:01:49;;;;;;;84.47;49.67;;;153.80;1920.00;;;;;;5076770;28;20074;-56
2022/02/05 06:04:20;;;;;;;89.50;49.85;;;153.90;1868.80;;;;;;5076632;28;20486;-57
2022/02/05 06:06:51;;;;;;;97.15;53.95;;;153.80;1868.80;;;;;;5076655;28;20021;-56
2022/02/05 06:09:23;;;;;;;96.25;54.00;;;154.00;1868.80;;;;;;5076673;28;20044;-56
2022/02/05 06:11:54;;;;;;;113.03;64.25;;;154.10;1843.20;;;;;;5076593;28;20056;-56
2022/02/05 06:14:28;;;;;;;106.45;61.58;;;154.10;1843.20;;;;;;5076737;28;20028;-56
2022/02/05 06:17:08;;;;;;;103.00;59.47;;;154.20;1817.60;;;;;;5076704;28;20020;-56
2022/02/05 06:19:40;;;;;;;91.03;52.65;;;154.40;1817.60;;;;;;5076727;28;20025;-57
2022/02/05 06:22:12;;;;;;;100.18;54.17;;;154.50;1792.00;;;;;;5076229;28;20033;-56
2022/02/05 06:24:41;;;;;;;84.68;48.30;;;154.50;1843.20;;;;;;5076160;28;20112;-56
2022/02/05 06:27:13;;;;;;;74.45;43.72;;;179.20;1817.60;;;;;;5075928;28;20109;-56
2022/02/05 06:29:43;;;;;;;86.07;45.40;;;179.20;1817.60;;;;;;5076290;28;20025;-56
2022/02/05 06:32:17;;;;;;;87.60;46.67;;;179.40;1817.60;;;;;;5075781;28;20080;-56
2022/02/05 06:34:48;;;;;;;82.20;45.08;;;179.40;1817.60;;;;;;5076242;28;20106;-56
2022/02/05 06:37:20;;;;;;;108.38;71.68;;;179.50;1843.20;;;;;;5075898;28;20110;-56
2022/02/05 06:39:52;;;;;;;125.25;82.75;;;179.60;1817.60;;;;;;5075774;28;20020;-56
2022/02/05 06:42:21;;;;;;;102.72;69.30;;;179.60;1843.20;;;;;;5075920;28;20036;-56
2022/02/05 06:44:52;;;;;;;91.22;57.05;;;179.50;1843.20;;;;;;5075977;28;20538;-56
2022/02/05 06:47:24;;;;;;;90.00;53.75;;;179.60;1817.60;;;;;;5076018;28;20375;-56
2022/02/05 06:49:57;;;;;;;83.30;50.63;;;179.60;1817.60;;;;;;5075730;28;20024;-56
2022/02/05 06:52:26;;;;;;;85.85;49.95;;;179.70;1792.00;;;;;;5076203;28;20016;-56
2022/02/05 06:54:58;;;;;;;74.45;45.83;;;179.70;1817.60;;;;;;5076090;28;20402;-56
2022/02/05 06:57:30;;;;;;;77.20;44.35;;;179.80;1817.60;;;;;;5075404;28;20370;-56
2022/02/05 07:00:04;;;;;;;70.55;43.28;;;179.80;1817.60;;;;;;5075332;28;20029;-56
2022/02/05 07:02:44;;;;;;;82.20;45.30;;;179.80;1817.60;;;;;;5076240;28;20043;-57
2022/02/05 07:05:16;;;;;;;86.97;46.10;;;179.90;1792.00;;;;;;5075616;28;20033;-58
2022/02/05 07:07:44;;;;;;;77.43;42.88;;;179.90;1817.60;;;;;;5075640;28;20435;-57
2022/02/05 07:10:10;;;;;;;79.60;42.20;;;180.00;1792.00;;;;;;5075340;28;20416;-59
2022/02/05 07:15:31;;;;;;;102.28;59.20;;;180.10;1817.60;;;;;;5075301;28;20051;-57
2022/02/05 07:20:59;;;;;;;130.13;80.60;;;180.10;1817.60;;;;;;5075027;28;20135;-56
2022/02/05 07:31:29;;;;;;;103.57;62.10;;;180.00;1843.20;;;;;;5103473;28;20393;-59
2022/02/05 07:34:00;;;;;;;107.30;59.65;;;180.10;1817.60;;;;;;5103366;28;20344;-58
2022/02/05 07:36:31;;;;;;;92.60;51.88;;;180.10;1817.60;;;;;;5105248;28;20094;-57
2022/02/05 07:38:57;;;;;;;89.45;49.58;;;180.10;1843.20;;;;;;5106078;28;20020;-58
2022/02/05 07:41:26;;;;;;;84.15;44.88;;;204.80;1817.60;;;;;;5103947;28;20024;-56
2022/02/05 07:43:52;;;;;;;81.80;45.58;;;204.80;1843.20;;;;;;5104161;28;20556;-57
2022/02/05 07:46:19;;;;;;;83.20;46.22;;;204.80;1792.00;;;;;;5105919;28;20355;-56
2022/02/05 07:48:45;;;;;;;86.70;48.47;;;204.80;1843.20;;;;;;5082070;28;20036;-56
2022/02/05 07:51:13;;;;;;;88.55;49.45;;;204.80;1817.60;;;;;;5102997;28;20023;-56
2022/02/05 07:53:39;;;;;;;78.93;44.15;;;180.10;1843.20;;;;;;5105386;28;20023;-57
2022/02/05 07:56:10;;;;;;;72.60;42.47;;;180.10;1868.80;;;;;;5108928;28;20032;-56
2022/02/05 07:58:40;;;;;;;68.68;40.53;;;204.80;1843.20;;;;;;5097809;28;20030;-57
2022/02/05 08:01:07;;;;;;;70.53;41.13;;;204.80;1868.80;;;;;;5108329;28;20049;-57
2022/02/05 08:03:38;;;;;;;76.53;41.53;;;204.90;1843.20;;;;;;5104064;28;20545;-56
2022/02/05 08:06:13;;;;;;;70.97;40.95;;;205.00;1868.80;;;;;;5112248;28;20031;-56
2022/02/05 08:08:46;;;;;;;66.65;39.00;;;205.10;1868.80;;;;;;5107401;28;20081;-56
2022/02/05 08:11:16;;;;;;;65.93;38.22;;;205.10;1868.80;;;;;;5095335;28;20366;-57
2022/02/05 08:13:50;;;;;;;64.18;38.42;;;205.20;1894.40;;;;;;5100167;28;20093;-57
2022/02/05 08:16:39;;;;;;;59.83;35.47;;;205.30;1843.20;;;;;;5106414;28;20051;-57
2022/02/05 08:19:05;;;;;;;57.40;33.10;;;205.30;1894.40;;;;;;5114183;28;20443;-56
2022/02/05 08:21:30;;;;;;;53.70;30.42;;;205.40;1894.40;;;;;;5114279;28;20049;-56
2022/02/05 08:23:57;;;;;;;54.75;30.73;;;205.40;1894.40;;;;;;5109561;28;20040;-59
2022/02/05 08:26:28;;;;;;;45.45;28.88;;;205.50;1894.40;;;;;;5098252;28;20031;-56
2022/02/05 08:28:58;;;;;;;58.55;32.22;;;205.60;1894.40;;;;;;5094016;28;20060;-57
2022/02/05 08:31:26;;;;;;;54.80;31.77;;;205.60;1920.00;;;;;;5093756;28;20053;-57
2022/02/05 08:33:54;;;;;;;59.63;33.40;;;205.60;1894.40;;;;;;5109253;28;20366;-57
2022/02/05 08:36:26;;;;;;;59.67;34.80;;;205.70;1894.40;;;;;;5104650;28;20481;-56
2022/02/05 08:38:54;;;;;;;52.97;30.08;;;230.40;1894.40;;;;;;5112087;28;20051;-56
2022/02/05 08:41:20;;;;;;;55.63;32.42;;;230.40;1894.40;;;;;;5107246;28;20024;-59
2022/02/05 08:43:46;;;;;;;54.38;31.67;;;230.50;1894.40;;;;;;5103204;28;20035;-59
2022/02/05 08:46:12;;;;;;;47.88;31.25;;;230.60;1868.80;;;;;;5104850;28;20019;-57
2022/02/05 08:48:38;;;;;;;62.75;38.75;;;230.60;1894.40;;;;;;5102037;28;20462;-56
2022/02/05 08:51:05;;;;;;;53.92;31.73;;;230.70;1868.80;;;;;;5102180;28;20427;-57
2022/02/05 08:53:33;;;;;;;47.50;29.95;;;230.70;1920.00;;;;;;5108755;28;20023;-56
2022/02/05 08:55:59;;;;;;;47.55;29.50;;;230.80;1920.00;;;;;;5114226;28;20023;-58
2022/02/05 08:58:25;;;;;;;53.47;29.10;;;230.80;1868.80;;;;;;5114090;28;20558;-57
2022/02/05 09:01:05;;;;;;;49.17;29.17;;;230.90;1920.00;;;;;;5098149;28;20039;-57
2022/02/05 09:03:38;;;;;;;48.60;29.25;;;231.00;1894.40;;;;;;5093862;28;20160;-57
2022/02/05 09:06:05;;;;;;;51.50;29.35;;;231.00;1894.40;;;;;;5104272;28;20140;-58
2022/02/05 09:08:41;;;;;;;53.03;30.70;;;231.00;1894.40;;;;;;5098946;28;20113;-56
2022/02/05 09:11:16;;;;;;;49.28;30.50;;;231.10;1894.40;;;;;;5086379;28;20032;-56
2022/02/05 09:16:13;;;;;;;62.17;35.17;;;231.20;1920.00;;;;;;5101529;28;20036;-59
2022/02/05 09:18:40;;;;;;;64.63;35.10;;;231.20;1920.00;;;;;;5104028;28;20016;-58
2022/02/05 09:21:07;;;;;;;91.43;45.83;;;231.30;1920.00;;;;;;5108209;28;20038;-57
2022/02/05 09:23:38;;;;;;;81.47;45.60;;;256.00;1920.00;;;;;;5098657;28;20123;-59
2022/02/05 09:26:13;;;;;;;67.65;41.05;;;256.00;1920.00;;;;;;5097366;28;20024;-58
2022/02/05 09:28:44;;;;;;;53.65;33.60;;;256.10;1920.00;;;;;;5097808;28;20406;-57
2022/02/05 09:31:31;;;;;;;47.33;29.90;;;256.30;1945.60;;;;;;5097616;28;20077;-57
2022/02/05 09:33:58;;;;;;;44.90;27.20;;;256.30;1920.00;;;;;;5097651;28;20039;-56
2022/02/05 09:36:26;;;;;;;43.08;24.23;;;256.40;1945.60;;;;;;5097593;28;20024;-56
2022/02/05 09:38:56;;;;;;;42.47;24.83;;;256.40;1945.60;;;;;;5100911;28;20028;-56
2022/02/05 09:41:28;;;;;;;39.58;25.73;;;256.50;1945.60;;;;;;5106789;28;20016;-58
2022/02/05 09:44:02;;;;;;;41.00;24.38;;;256.60;1945.60;;;;;;5112558;28;20038;-57
2022/02/05 09:46:34;;;;;;;35.95;23.05;;;256.70;1945.60;;;;;;5117828;28;20031;-57
2022/02/05 09:49:07;;;;;;;37.90;23.40;;;256.80;1920.00;;;;;;5117574;28;20028;-57
2022/02/05 09:51:50;;;;;;;34.08;23.15;;;256.80;1920.00;;;;;;5117910;28;20020;-59
2022/02/05 09:54:23;;;;;;;36.58;22.15;;;256.90;1945.60;;;;;;5117521;28;20023;-58
2022/02/05 09:56:55;;;;;;;37.70;21.00;;;281.60;1945.60;;;;;;5117526;28;20024;-59
2022/02/05 09:59:26;;;;;;;36.08;22.38;;;281.60;1971.20;;;;;;5117527;28;20027;-58
2022/02/05 10:02:22;;;;;;;38.42;23.77;;;281.70;1971.20;;;;;;5117598;28;20054;-58
2022/02/05 10:05:10;;;;;;;43.08;26.02;;;281.80;1945.60;;;;;;5117624;28;20080;-59
2022/02/05 10:08:09;;;;;;;34.85;21.50;;;281.80;1971.20;;;;;;5118080;28;20052;-58
2022/02/05 10:10:42;;;;;;;31.05;18.48;;;281.90;1971.20;;;;;;5117587;28;20024;-58
2022/02/05 10:13:22;;;;;;;29.83;18.48;;;282.00;1945.60;;;;;;5117422;28;20034;-58
2022/02/05 10:15:56;;;;;;;31.83;18.10;;;282.00;1945.60;;;;;;5117555;28;20100;-58
2022/02/05 10:18:45;;;;;;;35.58;18.38;;;282.10;1945.60;;;;;;5117909;28;20107;-58
2022/02/05 10:21:31;;;;;;;27.25;17.13;;;282.20;1945.60;;;;;;5117141;28;20527;-58
2022/02/05 10:24:06;;;;;;;26.73;17.40;;;282.20;1945.60;;;;;;5117009;28;20031;-58
2022/02/05 10:26:46;;;;;;;31.55;17.83;;;282.30;1920.00;;;;;;5116928;28;20028;-58
2022/02/05 10:29:20;;;;;;;21.92;15.27;;;282.40;1920.00;;;;;;5117627;28;20019;-58
2022/02/05 10:32:16;;;;;;;28.98;16.50;;;282.40;1920.00;;;;;;5115976;28;20051;-57
2022/02/05 10:38:03;;;;;;;24.27;16.15;;;307.20;1945.60;;;;;;5034209;28;20103;-57
2022/02/05 10:43:33;;;;;;;28.52;16.95;;;307.30;1920.00;;;;;;5034043;28;20049;-58
2022/02/05 10:46:06;;;;;;;28.13;16.30;;;307.40;1920.00;;;;;;5034011;28;20387;-57
2022/02/05 10:48:42;;;;;;;26.17;16.25;;;307.40;1920.00;;;;;;5034071;28;20512;-57
2022/02/05 10:51:14;;;;;;;30.15;16.52;;;307.50;1894.40;;;;;;5034153;28;20116;-57
2022/02/05 10:53:53;;;;;;;28.80;16.33;;;307.50;1868.80;;;;;;5033829;28;20080;-57
2022/02/05 10:56:36;;;;;;;25.40;15.75;;;307.60;1868.80;;;;;;5033788;28;20065;-57
2022/02/05 11:07:25;;;;;;;20.40;11.95;;;307.90;1792.00;;;;;;5033966;28;20032;-58
2022/02/05 11:09:57;;;;;;;18.95;10.23;;;307.90;1766.40;;;;;;5033618;28;20056;-57
2022/02/05 11:20:41;;;;;;;14.70;10.25;;;308.00;1664.00;;;;;;5116490;28;20385;-57
2022/02/05 11:23:14;;;;;;;17.60;10.23;;;308.00;1664.00;;;;;;5116010;28;20032;-57
2022/02/05 11:25:47;;;;;;;14.35;8.13;;;308.10;1664.00;;;;;;5116199;28;20026;-57
2022/02/05 11:28:37;;;;;;;18.05;8.88;;;308.10;1638.40;;;;;;5115882;28;20024;-57
2022/02/05 11:31:30;;;;;;;18.95;11.27;;;308.10;1638.40;;;;;;5115556;28;20020;-57
2022/02/05 11:34:15;;;;;;;22.58;13.57;;;308.10;1664.00;;;;;;5116016;28;20027;-57
2022/02/05 11:37:08;;;;;;;22.90;14.13;;;332.80;1689.60;;;;;;5115936;28;20027;-58
2022/02/05 11:39:56;;;;;;;26.38;12.70;;;332.80;1689.60;;;;;;5115590;28;20056;-57
2022/02/05 11:42:36;;;;;;;21.25;12.63;;;332.80;1664.00;;;;;;5115584;28;20088;-57
2022/02/05 11:45:29;;;;;;;18.48;10.82;;;332.80;1664.00;;;;;;5115621;28;20019;-57
2022/02/05 11:48:41;;;;;;;17.02;10.57;;;332.90;1664.00;;;;;;5115542;28;20015;-57
2022/02/05 11:51:15;;;;;;;14.85;9.25;;;333.00;1638.40;;;;;;5101916;28;20038;-57
2022/02/05 11:54:05;;;;;;;14.55;9.25;;;333.00;1638.40;;;;;;5114827;28;20031;-57
2022/02/05 11:56:48;;;;;;;22.25;12.55;;;333.00;1612.80;;;;;;5115288;28;20035;-57
2022/02/05 11:59:25;;;;;;;24.98;13.77;;;333.10;1638.40;;;;;;5115605;28;20112;-58
2022/02/05 12:02:20;;;;;;;21.85;13.73;;;333.10;1612.80;;;;;;5115232;28;20031;-57
2022/02/05 12:05:14;;;;;;;19.90;12.68;;;333.10;1587.20;;;;;;5115333;28;20461;-57
2022/02/05 12:08:10;;;;;;;18.87;12.03;;;333.10;1561.60;;;;;;5115122;28;20499;-57
2022/02/05 12:10:51;;;;;;;18.70;10.32;;;333.10;1510.40;;;;;;5115325;28;20313;-58
2022/02/05 12:13:40;;;;;;;15.55;9.23;;;333.10;1510.40;;;;;;5115107;28;20036;-57
2022/02/05 12:16:15;;;;;;;12.65;7.57;;;333.00;1484.80;;;;;;5114968;28;20534;-57
2022/02/05 12:19:16;;;;;;;13.63;7.70;;;333.00;1484.80;;;;;;5114906;28;20042;-58
2022/02/05 12:22:03;;;;;;;8.75;6.18;;;333.00;1484.80;;;;;;5115090;28;20026;-58
2022/02/05 12:25:14;;;;;;;14.40;8.40;;;332.90;1484.80;;;;;;5114284;28;20426;-57
2022/02/05 12:27:45;;;;;;;15.73;9.55;;;332.90;1484.80;;;;;;5114477;28;20496;-57
2022/02/05 12:30:42;;;;;;;13.73;8.52;;;332.80;1484.80;;;;;;5114654;28;20542;-57
2022/02/05 12:33:13;;;;;;;14.35;8.35;;;332.80;1484.80;;;;;;5114368;28;20055;-58
2022/02/05 12:35:55;;;;;;;19.23;11.35;;;332.80;1484.80;;;;;;5114679;28;20416;-57
2022/02/05 12:38:25;;;;;;;21.98;12.93;;;308.10;1433.60;;;;;;5114337;28;20032;-57
2022/02/05 12:40:59;;;;;;;21.70;13.00;;;308.10;1459.20;;;;;;5114306;28;20019;-57
2022/02/05 12:43:47;;;;;;;19.17;11.93;;;308.10;1433.60;;;;;;5114193;28;20031;-57
2022/02/05 12:46:21;;;;;;;18.83;10.20;;;308.10;1433.60;;;;;;5114617;28;20080;-59
2022/02/05 12:49:01;;;;;;;15.73;9.55;;;308.00;1433.60;;;;;;5114480;28;20102;-58
2022/02/05 12:51:39;;;;;;;13.63;8.57;;;308.00;1408.00;;;;;;5114196;28;20024;-57
2022/02/05 12:54:26;;;;;;;14.43;8.68;;;307.90;1408.00;;;;;;5114244;28;20366;-59
2022/02/05 12:57:04;;;;;;;16.60;8.65;;;308.00;1408.00;;;;;;5114002;28;20056;-58
2022/02/05 12:59:41;;;;;;;19.27;8.73;;;307.90;1408.00;;;;;;5114312;28;20106;-59
2022/02/05 13:02:15;;;;;;;17.55;9.13;;;307.90;1408.00;;;;;;5114088;28;20031;-57
2022/02/05 13:04:59;;;;;;;20.85;12.32;;;307.90;1433.60;;;;;;5114157;28;20035;-58
2022/02/05 13:07:27;;;;;;;22.48;13.00;;;307.90;1433.60;;;;;;5112796;28;20088;-59
2022/02/05 13:09:58;;;;;;;21.98;12.45;;;307.90;1433.60;;;;;;5104984;28;20546;-59
2022/02/05 13:12:36;;;;;;;19.80;11.60;;;307.80;1433.60;;;;;;5114144;28;20035;-57
2022/02/05 13:15:25;;;;;;;26.52;12.55;;;307.80;1459.20;;;;;;5113981;28;20028;-58
2022/02/05 13:26:24;;;;;;;22.63;12.85;;;307.70;1433.60;;;;;;5103263;28;20092;-58
2022/02/05 13:34:33;;;;;;;27.05;14.73;;;307.60;1382.40;;;;;;5101195;28;20594;-58
2022/02/05 13:37:26;;;;;;;27.13;16.25;;;307.60;1382.40;;;;;;5110458;28;20488;-61
2022/02/05 13:40:04;;;;;;;36.42;21.75;;;307.50;1382.40;;;;;;5113720;28;20095;-57
2022/02/05 13:42:42;;;;;;;82.22;35.90;;;307.50;1382.40;;;;;;5094935;28;20473;-56
2022/02/05 13:45:38;;;;;;;64.43;32.25;;;307.40;1382.40;;;;;;5093620;28;20061;-56
2022/02/05 13:48:21;;;;;;;54.63;27.98;;;307.30;1382.40;;;;;;5093437;28;20099;-56
2022/02/05 13:51:02;;;;;;;40.47;22.73;;;307.30;1382.40;;;;;;5092963;28;20020;-56
2022/02/05 13:53:34;;;;;;;39.28;19.60;;;307.30;1408.00;;;;;;5093033;28;20028;-57
2022/02/05 13:56:08;;;;;;;37.20;18.60;;;307.30;1408.00;;;;;;5093209;28;20020;-58
2022/02/05 13:58:38;;;;;;;;;;;307.30;1408.00;;;;;;5093408;28;20020;-57
2022/02/05 14:01:10;;;;;;;54.63;22.42;;;307.30;1382.40;;;;;;5093354;28;19924;-56
2022/02/05 14:03:43;;;;;;;44.10;19.50;;;307.30;1408.00;;;;;;5093225;28;20036;-57
2022/02/05 14:06:16;;;;;;;39.95;18.73;;;307.30;1408.00;;;;;;5093806;28;20028;-56
2022/02/05 14:08:50;;;;;;;42.58;20.02;;;307.30;1408.00;;;;;;5096229;28;20032;-56
2022/02/05 14:11:29;;;;;;;48.15;19.10;;;307.30;1408.00;;;;;;5097048;28;20032;-56
2022/02/05 14:14:03;;;;;;;47.80;18.90;;;307.30;1433.60;;;;;;5096803;28;20028;-56
2022/02/05 14:16:35;;;;;;;54.92;20.88;;;307.30;1459.20;;;;;;5097019;28;20042;-56
2022/02/05 14:19:08;;;;;;;48.20;20.92;;;307.20;1459.20;;;;;;5096236;28;20020;-57
2022/02/05 14:21:46;;;;;;;70.55;20.25;;;307.20;1459.20;;;;;;5096565;28;20032;-57
2022/02/05 14:24:19;;;;;;;55.80;18.48;;;282.50;1459.20;;;;;;5096717;28;20055;-56
2022/02/05 14:27:02;;;;;;;43.15;19.83;;;307.20;1459.20;;;;;;5096476;28;20079;-56
2022/02/05 14:35:05;;;;;;;31.60;14.23;;;282.50;1408.00;;;;;;5096576;28;20362;-56
2022/02/05 14:43:15;;;;;;;25.83;13.20;;;282.40;1382.40;;;;;;5096120;28;20166;-57
2022/02/05 14:45:47;;;;;;;29.05;13.65;;;282.30;1356.80;;;;;;5096846;28;20477;-57
2022/02/05 14:48:18;;;;;;;27.08;14.20;;;282.20;1356.80;;;;;;5096400;28;20032;-56
2022/02/05 14:50:52;;;;;;;31.02;14.68;;;282.20;1356.80;;;;;;5096276;28;20081;-56
2022/02/05 14:53:24;;;;;;;31.73;15.50;;;282.10;1356.80;;;;;;5096104;28;20052;-57
2022/02/05 14:55:55;;;;;;;31.20;15.73;;;282.10;1382.40;;;;;;5096101;28;20032;-57
2022/02/05 14:58:30;;;;;;;27.90;14.98;;;282.10;1382.40;;;;;;5095966;28;20028;-57
2022/02/05 15:00:56;;;;;;;;;;;282.00;1356.80;;;;;;5096372;28;20130;-56
2022/02/05 15:03:26;;;;;;;30.30;15.15;;;281.90;1382.40;;;;;;5095833;28;19912;-56
2022/02/05 15:05:59;;;;;;;40.30;18.40;;;281.90;1382.40;;;;;;5095978;28;20040;-57
2022/02/05 15:08:28;;;;;;;40.25;21.40;;;281.80;1382.40;;;;;;5077509;28;20443;-56
2022/02/05 15:10:54;;;;;;;40.15;21.50;;;281.80;1408.00;;;;;;5096263;28;20026;-56
2022/02/05 15:13:20;;;;;;;42.70;21.25;;;281.80;1408.00;;;;;;5095715;28;20027;-56
2022/02/05 15:15:52;;;;;;;44.42;23.23;;;281.80;1408.00;;;;;;5095936;28;20028;-56
2022/02/05 15:18:21;;;;;;;38.47;20.85;;;281.80;1408.00;;;;;;5094997;28;20458;-56
2022/02/05 15:20:47;;;;;;;43.63;22.90;;;281.80;1408.00;;;;;;5095448;28;20343;-57
2022/02/05 15:23:14;;;;;;;50.40;24.35;;;281.80;1408.00;;;;;;5095065;28;20089;-57
2022/02/05 15:25:40;;;;;;;59.55;29.23;;;281.80;1408.00;;;;;;5095322;28;20110;-56
2022/02/05 15:28:06;;;;;;;59.05;27.35;;;281.80;1408.00;;;;;;5095414;28;20104;-57
2022/02/05 15:30:33;;;;;;;52.78;25.50;;;281.70;1433.60;;;;;;5095269;28;20024;-56
2022/02/05 15:33:03;;;;;;;46.97;23.50;;;281.70;1433.60;;;;;;5094911;28;20052;-56
2022/02/05 15:35:31;;;;;;;45.70;22.17;;;281.70;1433.60;;;;;;5095170;28;20101;-56
2022/02/05 15:38:05;;;;;;;37.22;20.55;;;281.70;1433.60;;;;;;5095189;28;20032;-57
2022/02/05 15:43:52;;;;;;;43.67;22.25;;;281.70;1459.20;;;;;;5013012;28;20137;-56
2022/02/05 15:46:16;;;;;;;55.75;26.33;;;281.60;1459.20;;;;;;5012724;28;20048;-57
2022/02/05 15:48:45;;;;;;;78.00;30.85;;;281.60;1459.20;;;;;;5013162;28;20030;-59
2022/02/05 15:51:11;;;;;;;56.28;27.42;;;281.60;1459.20;;;;;;5013211;28;20030;-57
2022/02/05 15:53:50;;;;;;;39.63;22.00;;;281.70;1459.20;;;;;;5012883;28;20042;-57